Aviation Digital Data Service (ADDS)

Output produced by METARs form (1144 UTC 23 June 2021)
found at http://www.aviationweather.gov/metar/data/
 
METAR text: KAIG 231135Z AUTO 18006KT 10SM CLR 13/08 A2994 RMK AO2 T01320083
Conditions at: KAIG (ANTIGO/LANGLADE , WI, US) observed 1135 UTC 23 June 2021
Temperature: 13.2°C (56°F)
Dewpoint: 8.3°C (47°F) [RH = 72%]
Pressure (altimeter): 29.94 inches Hg (1014.0 mb)
Winds: from the S (180 degrees) at 7 MPH (6 knots; 3.1 m/s)
Visibility: 10 or more miles (16+ km)
Ceiling: at least 12,000 feet AGL
Clouds: sky clear below 12,000 feet AGL
Weather: automated observation with no human augmentation;
there may or may not be significant weather present at this time